• Join FlightAware (Why Join?)
  • Login
  • US Flag 
08:53AM EST


 

Airport Tracker/Info


-or-


 

Live Flight TrackerFlight Track Log ✈ EJM345 ✈ 03-08-2014 ✈ LIMJ / GOA - CYQX

Flight Track Log - Related Links

Times and Time Zones

All times are in EDT time to prevent confusion due to time zone crossing. See the EJM345 flight status page for this flight to view local times or setup timezone preferences in your user account.

Time Position Orientation Groundspeed Altitude Reporting Facility
EDT Latitude Longitude Course Direction KTS MPH feet Rate Location/Type
12:21PM 52.5378 -17.0131 286° West  Level FlightAware Approximate
12:22PM 52.5678 -17.1919 286° West  Level FlightAware Approximate
12:23PM 52.5976 -17.3709 285° West  Level FlightAware Approximate
12:24PM 52.6272 -17.5502 285° West  Level FlightAware Approximate
12:25PM 52.6564 -17.7297 285° West  Level FlightAware Approximate
12:26PM 52.6854 -17.9094 285° West  Level FlightAware Approximate
12:27PM 52.7141 -18.0894 285° West  Level FlightAware Approximate
12:28PM 52.7425 -18.2696 285° West  Level FlightAware Approximate
12:29PM 52.7707 -18.4500 285° West  Level FlightAware Approximate
12:30PM 52.7986 -18.6307 284° West  Level FlightAware Approximate
12:31PM 52.8262 -18.8116 284° West  Level FlightAware Approximate
12:32PM 52.8536 -18.9928 284° West  Level FlightAware Approximate
12:33PM 52.8806 -19.1741 284° West  Level FlightAware Approximate
12:34PM 52.9074 -19.3557 284° West  Level FlightAware Approximate
12:35PM 53.0000 -20.0000 274° West 432 497 36,000  Level ETMS Enhanced Traffic Management System
01:29PM 53.0000 -30.0000 265° West 403 464 36,000  Level ETMS Enhanced Traffic Management System
02:24PM 52.0000 -40.0000 256° West 383 441 36,000  Level ETMS Enhanced Traffic Management System
02:25PM 51.8907 -40.7124 256° West  Level FlightAware Approximate
02:26PM 51.8628 -40.8894 256° West  Level FlightAware Approximate
02:27PM 51.8346 -41.0662 256° West  Level FlightAware Approximate
02:28PM 51.8062 -41.2427 255° West  Level FlightAware Approximate
02:29PM 51.7775 -41.4190 255° West  Level FlightAware Approximate
02:30PM 51.7636 -41.5034 255° West 383 441 36,000  Level FlightAware Transoceanic
02:31PM 51.7362 -41.6695 255° West 383 441 36,000  Level FlightAware Transoceanic
02:32PM 51.7085 -41.8353 255° West 383 441 36,000  Level FlightAware Transoceanic
02:33PM 51.6806 -42.0010 255° West 383 441 36,000  Level FlightAware Transoceanic
02:34PM 51.6525 -42.1664 255° West 383 441 36,000  Level FlightAware Transoceanic
02:35PM 51.6241 -42.3316 254° West 383 441 36,000  Level FlightAware Transoceanic
02:36PM 51.5955 -42.4967 254° West 383 441 36,000  Level FlightAware Transoceanic
02:37PM 51.5667 -42.6615 254° West 383 441 36,000  Level FlightAware Transoceanic
02:38PM 51.5376 -42.8261 254° West 383 441 36,000  Level FlightAware Transoceanic
02:39PM 51.5083 -42.9905 254° West 383 441 36,000  Level FlightAware Transoceanic
02:40PM 51.4788 -43.1547 254° West 383 441 36,000  Level FlightAware Transoceanic
02:41PM 51.4490 -43.3187 254° West 383 441 36,000  Level FlightAware Transoceanic
02:42PM 51.4190 -43.4824 254° West 383 441 36,000  Level FlightAware Transoceanic
02:43PM 51.3888 -43.6460 253° West 383 441 36,000  Level FlightAware Transoceanic
02:44PM 51.3584 -43.8093 253° West 383 441 36,000  Level FlightAware Transoceanic
02:45PM 51.3277 -43.9724 253° West 383 441 36,000  Level FlightAware Transoceanic
02:46PM 51.2968 -44.1353 253° West 383 441 36,000  Level FlightAware Transoceanic
02:47PM 51.2657 -44.2980 253° West 383 441 36,000  Level FlightAware Transoceanic
02:48PM 51.2343 -44.4605 253° West 383 441 36,000  Level FlightAware Transoceanic
02:49PM 51.2028 -44.6227 253° West 383 441 36,000  Level FlightAware Transoceanic
02:50PM 51.1710 -44.7847 253° West 383 441 36,000  Level FlightAware Transoceanic
02:51PM 51.1390 -44.9465 252° West 383 441 36,000  Level FlightAware Transoceanic
02:52PM 51.1067 -45.1081 252° West 383 441 36,000  Level FlightAware Transoceanic
02:53PM 51.0743 -45.2694 252° West 383 441 36,000  Level FlightAware Transoceanic
02:54PM 51.0416 -45.4305 252° West 383 441 36,000  Level FlightAware Transoceanic
02:55PM 51.0087 -45.5914 252° West 383 441 36,000  Level FlightAware Transoceanic
02:56PM 50.9756 -45.7520 252° West 383 441 36,000  Level FlightAware Transoceanic
02:57PM 50.9422 -45.9124 252° West 383 441 36,000  Level FlightAware Transoceanic
02:58PM 50.9087 -46.0726 252° West 383 441 36,000  Level FlightAware Transoceanic
02:59PM 50.8749 -46.2326 251° West 383 441 36,000  Level FlightAware Transoceanic
03:00PM 50.8409 -46.3923 251° West 383 441 36,000  Level FlightAware Transoceanic
03:01PM 50.8067 -46.5518 251° West 383 441 36,000  Level FlightAware Transoceanic
03:02PM 50.7722 -46.7111 251° West 383 441 36,000  Level FlightAware Transoceanic
03:03PM 50.7376 -46.8701 251° West 383 441 36,000  Level FlightAware Transoceanic
03:04PM 50.7027 -47.0289 251° West 383 441 36,000  Level FlightAware Transoceanic
03:05PM 50.6676 -47.1874 251° West 383 441 36,000  Level FlightAware Transoceanic
03:06PM 50.6323 -47.3457 251° West 383 441 36,000  Level FlightAware Transoceanic
03:07PM 50.5968 -47.5038 250° West 383 441 36,000  Level FlightAware Transoceanic
03:08PM 50.5611 -47.6616 250° West 383 441 36,000  Level FlightAware Transoceanic
03:09PM 50.5252 -47.8192 250° West 383 441 36,000  Level FlightAware Transoceanic
03:10PM 50.4890 -47.9766 250° West 383 441 36,000  Level FlightAware Transoceanic
03:11PM 50.4526 -48.1337 250° West 383 441 36,000  Level FlightAware Transoceanic
03:12PM 50.4161 -48.2906 250° West 383 441 36,000  Level FlightAware Transoceanic
03:13PM 50.3793 -48.4472 250° West 383 441 36,000  Level FlightAware Transoceanic
03:14PM 50.3423 -48.6036 250° West 383 441 36,000  Level FlightAware Transoceanic
03:15PM 50.3051 -48.7597 249° West 383 441 36,000  Level FlightAware Transoceanic
03:16PM 50.2677 -48.9156 249° West 383 441 36,000  Level FlightAware Transoceanic
03:17PM 50.2301 -49.0713 249° West 383 441 36,000  Level FlightAware Transoceanic
03:18PM 50.1922 -49.2267 249° West 383 441 36,000  Level FlightAware Transoceanic
03:19PM 50.1542 -49.3819 249° West 383 441 36,000  Level FlightAware Transoceanic
03:20PM 50.1160 -49.5368 249° West 383 441 36,000  Level FlightAware Transoceanic
03:21PM 50.0775 -49.6914 249° West 383 441 36,000  Level FlightAware Transoceanic
03:22PM 50.0389 -49.8458 249° West 383 441 36,000  Level FlightAware Transoceanic
03:23PM 49.9977 -50.0092 249° West  Level FlightAware Approximate
03:24PM 49.9953 -50.0185 249° West  Level FlightAware Approximate
03:25PM 49.9541 -50.1817 249° West  Level FlightAware Approximate
03:26PM 50.0000 -50.0000 250° West 383 441 36,000  Level ETMS Enhanced Traffic Management System
03:27PM 49.9000 -50.2500 249° West 370 426 36,000  Level Gander Center
03:28PM 49.8315 -50.6598 248° West  Level FlightAware Approximate
03:28PM 49.8667 -50.4167 253° West 370 426 36,000  Level Gander Center
03:29PM 49.7902 -50.8186 248° West  Level FlightAware Approximate
03:29PM 49.8333 -50.5500 249° West 360 414 36,000  Level Gander Center
03:30PM 49.7487 -50.9772 248° West  Level FlightAware Approximate
03:30PM 49.8000 -50.6833 249° West 360 414 36,000  Level Gander Center
03:31PM 49.7070 -51.1355 248° West  Level FlightAware Approximate
03:31PM 49.7667 -50.8500 253° West 360 414 36,000  Level Gander Center
03:32PM 49.7351 -51.0821 249° West 383 441 36,000  Level FlightAware Transoceanic
03:32PM 49.7167 -51.0000 243° Southwest 360 414 36,000  Level Gander Center
03:33PM 49.6833 -51.1333 249° West 360 414 36,000  Level Gander Center
03:34PM 49.6500 -51.3000 253° West 360 414 36,000  Level Gander Center
03:35PM 49.6333 -51.3833 253° West 360 414 36,000  Level Gander Center
03:36PM 49.5833 -51.5167 240° Southwest 360 414 36,000  Level Gander Center
03:37PM 49.5667 -51.6500 259° West 360 414 36,000 -300 Level Gander Center
03:38PM 49.5333 -51.8167 253° West 360 414 35,400 -1,320 Descending Gander Center
03:39PM 49.4833 -51.9500 240° Southwest 360 414 33,400 -2,100 Descending Gander Center
03:40PM 49.4500 -52.1167 253° West 360 414 31,200 -2,100 Descending Gander Center
03:41PM 49.4333 -52.2500 259° West 380 437 29,200 -2,100 Descending Gander Center
03:42PM 49.3833 -52.4000 243° Southwest 390 449 27,100 -2,160 Descending Gander Center
03:43PM 49.3500 -52.5667 253° West 370 426 24,900 -2,100 Descending Gander Center
03:44PM 49.3333 -52.7000 259° West 370 426 22,900 -2,100 Descending Gander Center
03:45PM 49.2833 -52.8667 245° Southwest 350 403 20,700 -2,160 Descending Gander Center
03:46PM 49.2667 -53.0000 259° West 350 403 18,600 -2,160 Descending Gander Center
03:47PM 49.2333 -53.1333 249° West 350 403 16,400 -2,100 Descending Gander Center
03:48PM 49.1833 -53.2667 240° Southwest 340 391 14,400 -2,160 Descending Gander Center
03:49PM 49.1667 -53.4000 259° West 330 380 12,100 -2,160 Descending Gander Center
03:50PM 49.1167 -53.5667 245° Southwest 280 322 9,300 -2,100 Descending Gander Center
03:51PM 49.1000 -53.6333 249° West 260 299 7,200 -2,100 Descending Gander Center
03:52PM 49.0667 -53.7500 246° West 250 288 5,200 -1,620 Descending Gander Center
03:53PM 49.0333 -53.8500 243° Southwest 250 288 4,000 -780 Descending Gander Center
03:54PM 49.0167 -53.9333 253° West 250 288 3,700 -720 Descending Gander Center
03:55PM 49.0000 -54.0333 256° West 240 276 2,600 -840 Descending Gander Center
03:56PM 48.9667 -54.1167 239° Southwest 210 242 2,100 -300 Descending Gander Center
03:57PM 48.9667 -54.2000 270° West 200 230 2,100  Level Gander Center
03:58PM 48.9333 -54.2833 239° Southwest 200 230 2,100  Level Gander Center
03:59PM 48.9167 -54.3500 249° West 200 230 2,100 -240 Level Gander Center
04:00PM 48.9167 -54.4167 270° West 150 173 1,700 -600 Descending Gander Center
04:01PM 48.9333 -54.4500 307° West 130 150 1,000 -660 Descending Gander Center
04:02PM 48.9333 -54.5167 270° West 130 150 400 -600 Descending Gander Center